createdAt,value
2022-10-09T00:02:12.460Z,47.20
2022-10-09T00:04:39.230Z,48.20
2022-10-09T00:07:05.484Z,46.10
2022-10-09T00:09:31.734Z,45.70
2022-10-09T00:11:57.979Z,46.75
2022-10-09T00:14:24.218Z,49.53
2022-10-09T00:16:50.514Z,50.17
2022-10-09T00:19:16.790Z,44.75
2022-10-09T00:21:43.055Z,50.63
2022-10-09T00:24:09.311Z,57.85
2022-10-09T00:26:35.705Z,60.75
2022-10-09T00:29:01.954Z,55.03
2022-10-09T00:31:28.225Z,56.35
2022-10-09T00:33:54.467Z,59.95
2022-10-09T00:36:20.726Z,52.65
2022-10-09T00:38:47.013Z,62.13
2022-10-09T00:41:13.415Z,59.10
2022-10-09T00:43:39.668Z,52.33
2022-10-09T00:46:05.971Z,51.35
2022-10-09T00:48:32.343Z,53.75
2022-10-09T00:50:58.611Z,51.20
2022-10-09T00:53:24.860Z,50.00
2022-10-09T00:55:51.284Z,53.97
2022-10-09T00:58:17.570Z,51.45
2022-10-09T01:00:44.098Z,50.08
2022-10-09T01:03:10.398Z,65.57
2022-10-09T01:05:36.760Z,74.95
2022-10-09T01:08:03.016Z,77.55
2022-10-09T01:10:29.360Z,83.88
2022-10-09T01:12:55.616Z,70.70
2022-10-09T01:15:21.899Z,63.58
2022-10-09T01:17:48.151Z,59.50
2022-10-09T01:20:14.445Z,48.20
2022-10-09T01:22:40.691Z,47.08
2022-10-09T01:25:06.989Z,45.33
2022-10-09T01:27:33.244Z,43.17
2022-10-09T01:29:59.527Z,42.28
2022-10-09T01:32:25.784Z,50.08
2022-10-09T01:34:52.162Z,73.10
2022-10-09T01:37:18.408Z,80.15
2022-10-09T01:39:44.664Z,86.18
2022-10-09T01:42:10.918Z,94.93
2022-10-09T01:44:37.204Z,102.32
2022-10-09T01:47:04.526Z,92.10
2022-10-09T01:49:30.799Z,88.90
2022-10-09T01:51:57.051Z,81.32
2022-10-09T01:54:23.411Z,88.93
2022-10-09T01:56:49.709Z,91.68
2022-10-09T01:59:16.330Z,75.32
2022-10-09T02:01:42.755Z,79.20
2022-10-09T02:04:09.144Z,56.17
2022-10-09T02:06:35.645Z,55.95
2022-10-09T02:09:01.916Z,54.60
2022-10-09T02:11:28.162Z,86.22
2022-10-09T02:13:54.443Z,83.65
2022-10-09T02:16:20.785Z,83.03
2022-10-09T02:18:47.153Z,73.75
2022-10-09T02:21:13.407Z,73.43
2022-10-09T02:23:39.657Z,84.88
2022-10-09T02:26:05.834Z,88.70
2022-10-09T02:28:32.151Z,89.63
2022-10-09T02:30:58.645Z,66.95
2022-10-09T02:33:24.940Z,63.92
2022-10-09T02:35:51.190Z,99.65
2022-10-09T02:38:17.509Z,101.53
2022-10-09T02:40:43.766Z,80.15
2022-10-09T02:43:10.028Z,72.15
2022-10-09T02:45:36.292Z,81.55
2022-10-09T02:48:02.554Z,68.50
2022-10-09T02:50:28.811Z,67.80
2022-10-09T02:52:55.065Z,68.72
2022-10-09T02:55:21.298Z,90.30
2022-10-09T02:57:47.551Z,88.13
2022-10-09T03:00:13.727Z,96.05
2022-10-09T03:02:39.990Z,76.38
2022-10-09T03:05:06.303Z,55.13
2022-10-09T03:07:32.490Z,58.75
2022-10-09T03:09:58.801Z,56.42
2022-10-09T03:12:25.047Z,62.22
2022-10-09T03:14:51.287Z,81.25
2022-10-09T03:17:17.466Z,96.53
2022-10-09T03:19:43.651Z,61.47
2022-10-09T03:22:09.843Z,49.35
2022-10-09T03:24:36.103Z,45.92
2022-10-09T03:27:02.363Z,51.53
2022-10-09T03:29:28.546Z,45.38
2022-10-09T03:31:54.868Z,49.75
2022-10-09T03:34:21.079Z,44.10
2022-10-09T03:36:47.290Z,43.03
2022-10-09T03:39:13.526Z,41.42
2022-10-09T03:41:39.801Z,49.72
2022-10-09T03:44:06.011Z,64.78
2022-10-09T03:46:32.290Z,50.42
2022-10-09T03:48:58.549Z,75.30
2022-10-09T03:51:24.757Z,64.63
2022-10-09T03:53:50.942Z,69.57
2022-10-09T03:56:17.144Z,65.43
2022-10-09T03:58:43.336Z,74.43
2022-10-09T04:01:09.680Z,67.15
2022-10-09T04:03:35.920Z,67.00
2022-10-09T04:06:02.130Z,70.45
2022-10-09T04:08:28.308Z,81.65
2022-10-09T04:10:54.597Z,79.60
2022-10-09T04:13:20.785Z,92.32
2022-10-09T04:15:46.989Z,74.35
2022-10-09T04:18:13.166Z,55.00
2022-10-09T04:20:39.363Z,56.47
2022-10-09T04:23:05.529Z,53.85
2022-10-09T04:25:31.869Z,62.05
2022-10-09T04:27:58.062Z,57.38
2022-10-09T04:30:24.266Z,63.00
2022-10-09T04:32:50.659Z,62.38
2022-10-09T04:35:17.214Z,60.75
2022-10-09T04:37:43.438Z,62.05
2022-10-09T04:40:09.634Z,61.03
2022-10-09T04:42:35.811Z,60.08
2022-10-09T04:45:02.139Z,61.40
2022-10-09T04:47:28.317Z,63.20
2022-10-09T04:49:54.663Z,59.05
2022-10-09T04:52:20.859Z,64.40
2022-10-09T04:54:47.058Z,69.47
2022-10-09T04:57:13.338Z,73.82
2022-10-09T04:59:39.564Z,68.70
2022-10-09T05:02:05.852Z,70.20
2022-10-09T05:04:32.127Z,72.28
2022-10-09T05:06:58.328Z,77.28
2022-10-09T05:09:24.507Z,63.38
2022-10-09T05:11:50.694Z,50.85
2022-10-09T05:14:16.876Z,49.97
2022-10-09T05:17:08.508Z,53.03
2022-10-09T05:19:29.298Z,57.35
2022-10-09T05:21:55.492Z,53.35
2022-10-09T05:24:21.742Z,67.07
2022-10-09T05:26:47.951Z,67.40
2022-10-09T05:29:14.156Z,56.47
2022-10-09T05:31:40.414Z,61.15
2022-10-09T05:34:06.695Z,64.07
2022-10-09T05:36:32.878Z,63.13
2022-10-09T05:39:01.229Z,60.47
2022-10-09T05:41:28.406Z,66.60
2022-10-09T05:43:54.588Z,62.00
2022-10-09T05:46:20.927Z,71.97
2022-10-09T05:48:47.201Z,67.75
2022-10-09T05:51:13.410Z,66.20
2022-10-09T05:53:39.615Z,68.25
2022-10-09T05:56:05.808Z,70.90
2022-10-09T05:58:32.005Z,65.72
2022-10-09T06:00:58.223Z,66.38
2022-10-09T06:03:24.416Z,67.70
2022-10-09T06:05:50.618Z,67.75
2022-10-09T06:08:16.805Z,64.93
2022-10-09T06:10:43.012Z,66.28
2022-10-09T06:13:09.203Z,67.30
2022-10-09T06:15:35.388Z,62.97
2022-10-09T06:18:01.572Z,62.20
2022-10-09T06:20:28.066Z,61.90
2022-10-09T06:22:54.243Z,58.22
2022-10-09T06:25:20.428Z,58.72
2022-10-09T06:27:46.623Z,52.17
2022-10-09T06:30:12.807Z,51.97
2022-10-09T06:32:38.998Z,52.72
2022-10-09T06:35:05.185Z,56.40
2022-10-09T06:37:31.431Z,57.03
2022-10-09T06:39:57.623Z,54.65
2022-10-09T06:42:23.848Z,57.58
2022-10-09T06:44:50.022Z,65.95
2022-10-09T06:47:16.271Z,61.38
2022-10-09T06:49:42.459Z,74.82
2022-10-09T06:52:08.722Z,75.97
2022-10-09T06:54:34.966Z,73.85
2022-10-09T06:57:01.155Z,67.13
2022-10-09T06:59:27.428Z,71.80
2022-10-09T07:01:53.752Z,70.45
2022-10-09T07:04:21.555Z,68.78
2022-10-09T07:06:48.079Z,74.80
2022-10-09T07:09:14.371Z,79.15
2022-10-09T07:11:40.600Z,76.25
2022-10-09T07:14:06.770Z,72.70
2022-10-09T07:16:33.206Z,71.10
2022-10-09T07:19:03.758Z,70.32
2022-10-09T07:21:30.016Z,73.35
2022-10-09T07:23:56.323Z,77.00
2022-10-09T07:26:22.584Z,64.65
2022-10-09T07:28:48.955Z,58.70
2022-10-09T07:31:15.334Z,61.92
2022-10-09T07:33:41.661Z,59.95
2022-10-09T07:36:07.915Z,59.20
2022-10-09T07:38:34.188Z,67.03
2022-10-09T07:41:00.606Z,64.15
2022-10-09T07:43:26.882Z,62.97
2022-10-09T07:45:53.195Z,62.63
2022-10-09T07:48:19.482Z,67.22
2022-10-09T07:50:45.736Z,70.03
2022-10-09T07:53:12.017Z,69.20
2022-10-09T07:55:38.272Z,60.00
2022-10-09T07:58:04.566Z,67.18
2022-10-09T08:00:30.814Z,65.47
2022-10-09T08:02:57.181Z,65.70
2022-10-09T08:05:23.457Z,65.93
2022-10-09T08:07:49.712Z,78.38
2022-10-09T08:10:15.969Z,86.20
2022-10-09T08:12:42.246Z,107.70
2022-10-09T08:15:08.539Z,101.05
2022-10-09T08:17:34.842Z,107.32
2022-10-09T08:20:01.112Z,67.05
2022-10-09T08:22:27.378Z,60.45
2022-10-09T08:24:53.635Z,62.35
2022-10-09T08:27:19.886Z,67.32
2022-10-09T08:29:46.139Z,49.83
2022-10-09T08:32:12.399Z,53.90
2022-10-09T08:34:38.659Z,45.30
2022-10-09T08:37:04.911Z,79.10
2022-10-09T08:39:32.247Z,50.65
2022-10-09T08:42:01.335Z,48.38
2022-10-09T08:44:27.610Z,49.70
2022-10-09T08:46:54.019Z,66.70
2022-10-09T08:49:21.443Z,44.67
2022-10-09T08:51:47.717Z,71.40
2022-10-09T08:54:14.009Z,47.72
2022-10-09T08:56:40.274Z,99.70
2022-10-09T08:59:06.570Z,53.97
2022-10-09T09:01:32.898Z,74.15
2022-10-09T09:03:59.251Z,41.83
2022-10-09T09:06:25.490Z,45.83
2022-10-09T09:08:51.753Z,47.75
2022-10-09T09:11:21.449Z,52.55
2022-10-09T09:13:51.368Z,52.15
2022-10-09T09:16:17.683Z,50.50
2022-10-09T09:18:44.230Z,66.80
2022-10-09T09:21:10.486Z,58.13
2022-10-09T09:23:36.734Z,68.70
2022-10-09T09:26:03.059Z,64.70
2022-10-09T09:28:29.404Z,63.75
2022-10-09T09:30:57.750Z,67.30
2022-10-09T09:33:24.055Z,62.13
2022-10-09T09:35:50.299Z,57.30
2022-10-09T09:38:16.568Z,75.53
2022-10-09T09:40:46.780Z,76.82
2022-10-09T09:43:13.723Z,65.00
2022-10-09T09:45:40.002Z,48.42
2022-10-09T09:48:06.256Z,62.92
2022-10-09T09:50:47.061Z,66.40
2022-10-09T09:53:16.630Z,45.97
2022-10-09T09:55:42.924Z,54.20
2022-10-09T09:58:09.201Z,73.03
2022-10-09T10:00:35.574Z,64.20
2022-10-09T10:03:01.908Z,52.05
2022-10-09T10:05:28.155Z,52.38
2022-10-09T10:07:54.406Z,62.60
2022-10-09T10:10:25.007Z,58.42
2022-10-09T10:12:52.388Z,58.20
2022-10-09T10:15:18.972Z,55.25
2022-10-09T10:17:45.255Z,55.67
2022-10-09T10:20:11.511Z,68.07
2022-10-09T10:22:37.778Z,79.63
2022-10-09T10:25:04.037Z,87.70
2022-10-09T10:27:30.584Z,62.35
2022-10-09T10:29:56.845Z,56.65
2022-10-09T10:32:23.108Z,73.50
2022-10-09T10:34:49.393Z,107.45
2022-10-09T10:37:15.651Z,83.57
2022-10-09T10:39:41.906Z,78.13
2022-10-09T10:42:08.169Z,105.93
2022-10-09T10:44:34.410Z,82.15
2022-10-09T10:47:00.809Z,66.22
2022-10-09T10:49:31.649Z,58.30
2022-10-09T10:51:59.915Z,55.60
2022-10-09T10:54:26.194Z,46.85
2022-10-09T10:56:52.486Z,49.42
2022-10-09T10:59:18.757Z,48.67
2022-10-09T11:01:45.012Z,54.45
2022-10-09T11:04:11.270Z,71.35
2022-10-09T11:06:37.544Z,74.38
2022-10-09T11:09:05.328Z,61.90
2022-10-09T11:11:33.597Z,64.28
2022-10-09T11:13:59.871Z,58.72
2022-10-09T11:16:26.174Z,54.95
2022-10-09T11:18:52.440Z,74.68
2022-10-09T11:21:18.717Z,67.40
2022-10-09T11:23:44.978Z,52.75
2022-10-09T11:26:11.228Z,60.55
2022-10-09T11:28:37.551Z,63.35
2022-10-09T11:31:03.822Z,56.38
2022-10-09T11:33:30.163Z,63.90
2022-10-09T11:35:56.410Z,74.05
2022-10-09T11:38:22.713Z,81.72
2022-10-09T11:40:49.064Z,58.28
2022-10-09T11:43:15.331Z,61.78
2022-10-09T11:45:41.652Z,78.43
2022-10-09T11:48:08.050Z,68.43
2022-10-09T11:50:34.336Z,77.05
2022-10-09T11:53:00.629Z,71.93
2022-10-09T11:55:26.912Z,81.22
2022-10-09T11:57:53.351Z,93.00
2022-10-09T12:00:19.842Z,111.78
2022-10-09T12:02:46.140Z,123.82
2022-10-09T12:05:12.440Z,178.55
2022-10-09T12:10:09.874Z,175.90
2022-10-09T12:12:37.698Z,237.30
2022-10-09T12:15:03.983Z,194.70
2022-10-09T12:17:30.251Z,170.35
2022-10-09T12:20:00.935Z,148.65
2022-10-09T12:22:27.516Z,156.98
2022-10-09T12:24:53.763Z,110.10
2022-10-09T12:27:20.033Z,113.30
2022-10-09T12:29:46.326Z,104.97
2022-10-09T12:32:12.578Z,84.15
2022-10-09T12:34:38.893Z,82.85
2022-10-09T12:37:05.218Z,101.75
2022-10-09T12:39:33.663Z,93.43
2022-10-09T12:41:59.928Z,112.90
2022-10-09T12:44:26.189Z,98.75
2022-10-09T12:46:52.469Z,104.65
2022-10-09T12:49:18.722Z,95.70
2022-10-09T12:51:44.970Z,85.90
2022-10-09T12:54:11.274Z,81.03
2022-10-09T12:56:38.288Z,75.43
2022-10-09T12:59:04.507Z,153.87
2022-10-09T13:01:30.999Z,116.63
2022-10-09T13:03:57.382Z,138.88
2022-10-09T13:06:23.660Z,94.15
2022-10-09T13:08:49.943Z,144.43
2022-10-09T13:11:16.205Z,121.35
2022-10-09T13:13:42.478Z,136.80
2022-10-09T13:16:09.502Z,132.80
2022-10-09T13:18:35.773Z,124.83
2022-10-09T13:21:02.174Z,169.32
2022-10-09T13:23:28.530Z,143.63
2022-10-09T13:25:54.815Z,199.43
2022-10-09T13:28:21.139Z,134.43
2022-10-09T13:31:04.081Z,175.43
2022-10-09T13:33:30.362Z,197.10
2022-10-09T13:35:56.616Z,234.68
2022-10-09T13:38:23.906Z,148.40
2022-10-09T13:40:50.298Z,161.88
2022-10-09T13:43:16.545Z,93.45
2022-10-09T13:45:43.892Z,101.70
2022-10-09T13:48:10.164Z,116.78
2022-10-09T13:50:36.410Z,115.28
2022-10-09T13:53:02.677Z,133.00
2022-10-09T13:55:28.930Z,141.18
2022-10-09T13:57:55.446Z,94.72
2022-10-09T14:00:21.879Z,104.47
2022-10-09T14:02:48.166Z,122.82
2022-10-09T14:05:14.430Z,126.30
2022-10-09T14:07:40.718Z,132.80
2022-10-09T14:13:09.989Z,100.35
2022-10-09T14:15:36.285Z,99.20
2022-10-09T14:18:02.559Z,120.53
2022-10-09T14:20:28.826Z,104.25
2022-10-09T14:22:55.066Z,102.15
2022-10-09T14:25:21.355Z,99.55
2022-10-09T14:27:47.659Z,101.75
2022-10-09T14:30:13.913Z,93.25
2022-10-09T14:32:40.155Z,89.53
2022-10-09T14:35:06.402Z,83.00
2022-10-09T14:37:41.549Z,116.10
2022-10-09T14:40:08.564Z,85.30
2022-10-09T14:42:34.877Z,96.13
2022-10-09T14:45:01.176Z,113.15
2022-10-09T14:47:27.456Z,109.78
2022-10-09T14:49:54.026Z,94.35
2022-10-09T14:52:20.300Z,100.05
2022-10-09T14:54:46.572Z,88.88
2022-10-09T14:57:13.044Z,87.47
2022-10-09T14:59:39.292Z,80.05
2022-10-09T15:02:07.022Z,100.00
2022-10-09T15:04:33.366Z,89.05
2022-10-09T15:06:59.644Z,84.90
2022-10-09T15:09:26.400Z,81.50
2022-10-09T15:11:52.735Z,79.18
2022-10-09T15:14:18.986Z,95.75
2022-10-09T15:16:45.446Z,90.18
2022-10-09T15:19:11.721Z,97.72
2022-10-09T15:21:37.985Z,114.38
2022-10-09T15:24:04.252Z,119.75
2022-10-09T15:26:30.502Z,132.18
2022-10-09T15:28:57.631Z,129.82
2022-10-09T15:31:24.009Z,129.05
2022-10-09T15:33:50.354Z,124.10
2022-10-09T15:36:16.618Z,109.35
2022-10-09T15:38:42.927Z,92.50
2022-10-09T15:41:09.184Z,87.63
2022-10-09T15:46:38.448Z,109.75
2022-10-09T15:49:04.710Z,105.88
2022-10-09T15:51:33.032Z,103.30
2022-10-09T15:53:59.876Z,98.13
2022-10-09T15:56:26.126Z,87.60
2022-10-09T15:58:52.387Z,82.18
2022-10-09T16:01:18.758Z,70.05
2022-10-09T16:03:45.057Z,65.22
2022-10-09T16:06:11.317Z,64.93
2022-10-09T16:08:37.567Z,75.43
2022-10-09T16:11:03.840Z,72.88
2022-10-09T16:13:30.156Z,95.25
2022-10-09T16:15:56.407Z,118.40
2022-10-09T16:18:22.672Z,134.40
2022-10-09T16:20:48.941Z,180.75
2022-10-09T16:23:15.200Z,85.45
2022-10-09T16:25:41.463Z,79.72
2022-10-09T16:28:07.776Z,69.63
2022-10-09T16:30:34.189Z,78.90
2022-10-09T16:33:00.448Z,90.50
2022-10-09T16:35:26.703Z,97.82
2022-10-09T16:37:53.252Z,77.90
2022-10-09T16:40:21.072Z,73.63
2022-10-09T16:42:52.130Z,62.58
2022-10-09T16:45:18.515Z,61.63
2022-10-09T16:47:45.509Z,72.65
2022-10-09T16:50:12.028Z,74.82
2022-10-09T16:52:38.285Z,52.92
2022-10-09T16:55:04.549Z,54.85
2022-10-09T16:57:30.809Z,56.88
2022-10-09T16:59:57.078Z,72.63
2022-10-09T17:02:23.338Z,78.47
2022-10-09T17:04:49.586Z,49.10
2022-10-09T17:07:15.863Z,57.47
2022-10-09T17:09:42.924Z,68.20
2022-10-09T17:12:09.698Z,56.07
2022-10-09T17:14:36.847Z,54.13
2022-10-09T17:17:03.039Z,50.33
2022-10-09T17:19:29.291Z,54.15
2022-10-09T17:21:55.653Z,49.38
2022-10-09T17:24:21.899Z,43.75
2022-10-09T17:26:48.222Z,48.88
2022-10-09T17:29:14.490Z,45.22
2022-10-09T17:31:40.818Z,54.50
2022-10-09T17:34:07.122Z,84.80
2022-10-09T17:36:33.370Z,79.50
2022-10-09T17:38:59.704Z,51.15
2022-10-09T17:41:25.946Z,54.42
2022-10-09T17:43:52.291Z,55.67
2022-10-09T17:46:18.578Z,54.40
2022-10-09T17:48:48.416Z,50.17
2022-10-09T17:51:14.851Z,48.58
2022-10-09T17:53:41.122Z,49.97
2022-10-09T17:56:07.388Z,52.72
2022-10-09T17:58:33.643Z,47.78
2022-10-09T18:00:59.949Z,50.65
2022-10-09T18:03:26.224Z,49.67
2022-10-09T18:05:52.498Z,48.22
2022-10-09T18:08:18.810Z,46.40
2022-10-09T18:10:45.070Z,42.72
2022-10-09T18:13:11.344Z,46.97
2022-10-09T18:15:37.732Z,45.67
2022-10-09T18:18:04.003Z,48.70
2022-10-09T18:20:32.900Z,48.75
2022-10-09T18:22:59.175Z,47.85
2022-10-09T18:25:25.423Z,50.42
2022-10-09T18:27:52.101Z,57.92
2022-10-09T18:30:20.536Z,56.20
2022-10-09T18:35:13.396Z,54.47
2022-10-09T18:37:39.653Z,63.80
2022-10-09T18:40:05.906Z,60.63
2022-10-09T18:42:32.161Z,54.90
2022-10-09T18:44:58.487Z,61.75
2022-10-09T18:47:26.147Z,70.53
2022-10-09T18:49:52.475Z,68.97
2022-10-09T18:52:18.728Z,60.63
2022-10-09T18:54:44.979Z,74.32
2022-10-09T18:57:11.272Z,82.90
2022-10-09T18:59:38.020Z,59.28
2022-10-09T19:02:04.274Z,50.35
2022-10-09T19:04:30.575Z,50.42
2022-10-09T19:06:56.869Z,61.50
2022-10-09T19:09:23.118Z,67.45
2022-10-09T19:11:49.453Z,80.22
2022-10-09T19:14:15.892Z,80.15
2022-10-09T19:16:42.164Z,53.03
2022-10-09T19:19:08.465Z,51.70
2022-10-09T19:21:34.735Z,63.42
2022-10-09T19:24:04.372Z,66.38
2022-10-09T19:26:30.633Z,57.42
2022-10-09T19:28:56.891Z,63.47
2022-10-09T19:31:23.151Z,69.50
2022-10-09T19:33:49.411Z,70.97
2022-10-09T19:36:15.663Z,65.95
2022-10-09T19:38:41.914Z,60.65
2022-10-09T19:41:08.170Z,58.65
2022-10-09T19:43:34.541Z,56.15
2022-10-09T19:46:00.790Z,63.92
2022-10-09T19:48:27.053Z,52.97
2022-10-09T19:50:53.318Z,96.38
2022-10-09T19:53:19.574Z,147.93
2022-10-09T19:55:45.826Z,142.13
2022-10-09T19:58:17.723Z,74.22
2022-10-09T20:00:44.158Z,53.03
2022-10-09T20:03:10.411Z,47.80
2022-10-09T20:05:36.666Z,44.13
2022-10-09T20:08:02.924Z,46.33
2022-10-09T20:10:29.183Z,52.17
2022-10-09T20:12:55.450Z,50.40
2022-10-09T20:15:22.284Z,54.42
2022-10-09T20:17:48.541Z,54.55
2022-10-09T20:20:14.789Z,55.17
2022-10-09T20:22:41.111Z,52.40
2022-10-09T20:25:07.362Z,50.00
2022-10-09T20:27:33.627Z,44.92
2022-10-09T20:29:59.881Z,50.25
2022-10-09T20:32:26.161Z,69.28
2022-10-09T20:34:52.451Z,67.30
2022-10-09T20:37:18.690Z,56.03
2022-10-09T20:39:44.954Z,51.70
2022-10-09T20:42:11.215Z,61.00
2022-10-09T20:44:37.487Z,91.65
2022-10-09T21:01:36.727Z,52.92
2022-10-09T21:04:03.203Z,67.50
2022-10-09T21:06:30.157Z,63.13
2022-10-09T21:08:56.436Z,52.85
2022-10-09T21:11:22.732Z,57.67
2022-10-09T21:13:49.003Z,45.10
2022-10-09T21:16:15.240Z,50.80
2022-10-09T21:18:41.506Z,56.78
2022-10-09T21:21:07.755Z,54.75
2022-10-09T21:23:34.034Z,67.30
2022-10-09T21:26:00.278Z,67.38
2022-10-09T21:28:26.671Z,73.15
2022-10-09T21:30:52.915Z,79.57
2022-10-09T21:33:19.182Z,79.32
2022-10-09T21:35:45.713Z,82.13
2022-10-09T21:38:12.583Z,80.88
2022-10-09T21:40:38.834Z,80.50
2022-10-09T21:43:05.112Z,73.93
2022-10-09T21:45:31.418Z,68.10
2022-10-09T21:47:57.693Z,63.60
2022-10-09T21:50:24.015Z,63.88
2022-10-09T21:52:50.461Z,60.95
2022-10-09T21:55:16.925Z,62.33
2022-10-09T21:57:45.203Z,61.53
2022-10-09T22:00:11.595Z,59.88
2022-10-09T22:02:37.888Z,60.47
2022-10-09T22:05:04.148Z,57.67
2022-10-09T22:07:32.726Z,56.85
2022-10-09T22:09:58.984Z,57.78
2022-10-09T22:12:25.256Z,59.58
2022-10-09T22:14:51.498Z,66.55
2022-10-09T22:17:17.780Z,73.28
2022-10-09T22:19:44.216Z,74.00
2022-10-09T22:22:10.473Z,70.35
2022-10-09T22:24:36.765Z,67.45
2022-10-09T22:27:03.006Z,67.68
2022-10-09T22:29:29.262Z,64.90
2022-10-09T22:31:55.526Z,62.60
2022-10-09T22:34:21.789Z,61.35
2022-10-09T22:36:48.064Z,59.45
2022-10-09T22:39:14.338Z,53.55
2022-10-09T22:41:40.608Z,48.22
2022-10-09T22:44:06.861Z,50.85
2022-10-09T22:46:33.120Z,47.10
2022-10-09T22:48:59.378Z,45.17
2022-10-09T22:51:25.743Z,50.17
2022-10-09T22:53:52.209Z,48.00
2022-10-09T22:56:18.463Z,51.50
2022-10-09T22:58:44.743Z,50.58
2022-10-09T23:01:11.220Z,52.47
2022-10-09T23:03:37.595Z,49.65
2022-10-09T23:06:03.845Z,52.70
2022-10-09T23:08:30.102Z,50.05
2022-10-09T23:10:56.362Z,51.08
2022-10-09T23:13:22.685Z,48.90
2022-10-09T23:15:48.939Z,46.30
2022-10-09T23:18:15.340Z,50.00
2022-10-09T23:20:41.656Z,55.42
2022-10-09T23:23:07.932Z,51.22
2022-10-09T23:25:34.179Z,49.50
2022-10-09T23:28:00.459Z,52.75
2022-10-09T23:30:26.735Z,48.13
2022-10-09T23:32:53.098Z,46.80
2022-10-09T23:35:19.499Z,47.45
2022-10-09T23:37:45.747Z,46.97
2022-10-09T23:40:12.006Z,47.83
2022-10-09T23:42:38.268Z,43.78
2022-10-09T23:45:04.557Z,45.88
2022-10-09T23:47:30.812Z,47.75
2022-10-09T23:49:57.073Z,41.72
2022-10-09T23:52:23.315Z,42.83
2022-10-09T23:54:49.562Z,44.50
2022-10-09T23:57:15.829Z,50.70
2022-10-09T23:59:42.148Z,44.55
